Iguazu, Argentina
Current Conditions -  °F | °C
As of 5:00 PM on Wednesday 28 Jan 2015 (Local Time) from SBFI Reporting Station
Thunderstorm Thunderstorm  
Wind Chill: 75°   Ceiling: 10000
Heat Index: 75°   Visibility: 6mi
Dew Point: 72°   Wind: 3mph
Humidity: 89%   Direction: 360°N
Pressure: NA   Gusts: NA
Location:  25.58°S, 54.57°W
Report Text: SBFI 282000Z 36003KT 9999 -TSRA SCT020 FEW030CB BKN100 24/22 Q1008
Loading
Personal Weather Stations






























Interactive Weather Map New forecast layout! Learn more

10-Day Weather Forecast

Advertisements
Track Severe Weather on mobile